sensor_id;sensor_type;location;lat;lon;timestamp;pressure;altitude;pressure_sealevel;temperature;humidity
68230;BME280;55048;52.220;5.160;2023-02-11T00:00:06;103262.22;;;7.67;83.76
68230;BME280;55048;52.220;5.160;2023-02-11T00:02:32;103193.59;;;7.13;83.71
68230;BME280;55048;52.220;5.160;2023-02-11T00:04:57;103337.03;;;7.95;83.51
68230;BME280;55048;52.220;5.160;2023-02-11T00:07:23;103116.38;;;6.66;84.21
68230;BME280;55048;52.220;5.160;2023-02-11T00:09:49;103241.81;;;7.59;83.93
68230;BME280;55048;52.220;5.160;2023-02-11T00:12:14;103098.53;;;6.68;83.74
68230;BME280;55048;52.220;5.160;2023-02-11T00:14:40;103244.47;;;7.59;84.30
68230;BME280;55048;52.220;5.160;2023-02-11T00:17:05;103201.19;;;7.43;83.72
68230;BME280;55048;52.220;5.160;2023-02-11T00:19:31;103159.56;;;7.27;83.79
68230;BME280;55048;52.220;5.160;2023-02-11T00:21:56;103248.38;;;7.81;83.80
68230;BME280;55048;52.220;5.160;2023-02-11T00:24:22;103186.56;;;7.30;84.41
68230;BME280;55048;52.220;5.160;2023-02-11T00:26:47;103205.81;;;7.40;84.16
68230;BME280;55048;52.220;5.160;2023-02-11T00:29:12;103229.16;;;7.45;84.25
68230;BME280;55048;52.220;5.160;2023-02-11T00:31:39;103188.84;;;7.25;84.24
68230;BME280;55048;52.220;5.160;2023-02-11T00:34:04;103286.16;;;7.83;83.91
68230;BME280;55048;52.220;5.160;2023-02-11T00:36:30;103184.66;;;7.14;83.71
68230;BME280;55048;52.220;5.160;2023-02-11T00:38:57;103309.19;;;7.91;84.00
68230;BME280;55048;52.220;5.160;2023-02-11T00:41:23;103177.25;;;7.18;83.71
68230;BME280;55048;52.220;5.160;2023-02-11T00:43:50;103276.19;;;7.77;83.51
68230;BME280;55048;52.220;5.160;2023-02-11T00:46:17;103243.28;;;7.54;83.63
68230;BME280;55048;52.220;5.160;2023-02-11T00:48:43;103295.06;;;7.82;84.14
68230;BME280;55048;52.220;5.160;2023-02-11T00:51:08;103199.00;;;7.12;84.57
68230;BME280;55048;52.220;5.160;2023-02-11T00:53:34;103283.00;;;7.54;84.61
68230;BME280;55048;52.220;5.160;2023-02-11T00:56:00;103054.44;;;6.25;84.20
68230;BME280;55048;52.220;5.160;2023-02-11T00:58:26;103013.78;;;6.00;84.60
68230;BME280;55048;52.220;5.160;2023-02-11T01:00:53;103202.94;;;7.08;84.61
68230;BME280;55048;52.220;5.160;2023-02-11T01:03:19;103267.22;;;7.70;84.62
68230;BME280;55048;52.220;5.160;2023-02-11T01:05:45;103121.25;;;6.79;84.49
68230;BME280;55048;52.220;5.160;2023-02-11T01:08:10;103188.97;;;7.15;84.58
68230;BME280;55048;52.220;5.160;2023-02-11T01:10:37;103260.22;;;7.69;84.58
68230;BME280;55048;52.220;5.160;2023-02-11T01:13:02;103257.75;;;7.67;84.84
68230;BME280;55048;52.220;5.160;2023-02-11T01:15:28;102968.13;;;5.89;84.92
68230;BME280;55048;52.220;5.160;2023-02-11T01:17:55;103173.81;;;7.00;85.60
68230;BME280;55048;52.220;5.160;2023-02-11T01:20:24;102977.16;;;5.87;84.75
68230;BME280;55048;52.220;5.160;2023-02-11T01:22:49;103269.44;;;7.57;84.66
68230;BME280;55048;52.220;5.160;2023-02-11T01:25:15;103093.13;;;6.52;84.88
68230;BME280;55048;52.220;5.160;2023-02-11T01:27:40;103256.72;;;7.34;84.80
68230;BME280;55048;52.220;5.160;2023-02-11T01:30:07;103194.19;;;7.07;84.78
68230;BME280;55048;52.220;5.160;2023-02-11T01:32:34;103120.53;;;6.69;84.63
68230;BME280;55048;52.220;5.160;2023-02-11T01:34:59;103076.25;;;6.27;84.86
68230;BME280;55048;52.220;5.160;2023-02-11T01:37:25;103109.25;;;6.41;84.44
68230;BME280;55048;52.220;5.160;2023-02-11T01:39:50;103082.00;;;6.40;84.71
68230;BME280;55048;52.220;5.160;2023-02-11T01:42:22;103295.25;;;7.55;85.24
68230;BME280;55048;52.220;5.160;2023-02-11T01:44:52;103196.00;;;7.07;85.22
68230;BME280;55048;52.220;5.160;2023-02-11T01:47:19;103280.34;;;7.54;86.13
68230;BME280;55048;52.220;5.160;2023-02-11T01:49:49;103282.69;;;7.57;85.62
68230;BME280;55048;52.220;5.160;2023-02-11T01:52:18;103277.22;;;7.58;85.80
68230;BME280;55048;52.220;5.160;2023-02-11T01:54:55;103212.66;;;7.25;84.91
68230;BME280;55048;52.220;5.160;2023-02-11T01:57:42;103243.34;;;7.36;85.34
68230;BME280;55048;52.220;5.160;2023-02-11T02:00:29;103271.41;;;7.55;85.11
68230;BME280;55048;52.220;5.160;2023-02-11T02:06:04;103269.41;;;7.49;85.38
68230;BME280;55048;52.220;5.160;2023-02-11T02:08:39;103247.59;;;7.29;85.55
68230;BME280;55048;52.220;5.160;2023-02-11T02:11:07;103223.81;;;7.11;85.48
68230;BME280;55048;52.220;5.160;2023-02-11T02:13:35;103268.84;;;7.37;87.06
68230;BME280;55048;52.220;5.160;2023-02-11T02:16:06;103117.53;;;6.46;85.75
68230;BME280;55048;52.220;5.160;2023-02-11T02:26:18;103272.69;;;7.43;85.62
68230;BME280;55048;52.220;5.160;2023-02-11T02:31:48;103214.28;;;7.18;85.47
68230;BME280;55048;52.220;5.160;2023-02-11T02:34:36;103253.81;;;7.46;85.25
68230;BME280;55048;52.220;5.160;2023-02-11T02:37:13;103248.31;;;7.39;85.07
68230;BME280;55048;52.220;5.160;2023-02-11T02:39:40;103244.50;;;7.33;85.14
68230;BME280;55048;52.220;5.160;2023-02-11T02:42:06;103082.97;;;6.39;85.09
68230;BME280;55048;52.220;5.160;2023-02-11T02:44:32;103086.44;;;6.39;84.99
68230;BME280;55048;52.220;5.160;2023-02-11T02:46:58;103136.22;;;6.70;84.78
68230;BME280;55048;52.220;5.160;2023-02-11T02:49:23;103031.66;;;6.06;85.01
68230;BME280;55048;52.220;5.160;2023-02-11T03:03:33;103267.22;;;7.44;85.00
68230;BME280;55048;52.220;5.160;2023-02-11T03:06:03;103258.28;;;7.45;84.71
68230;BME280;55048;52.220;5.160;2023-02-11T03:08:37;103185.91;;;6.84;84.82
68230;BME280;55048;52.220;5.160;2023-02-11T03:11:04;103032.50;;;6.06;84.49
68230;BME280;55048;52.220;5.160;2023-02-11T03:13:33;103075.81;;;6.31;84.57
68230;BME280;55048;52.220;5.160;2023-02-11T03:16:13;103204.78;;;7.07;84.76
68230;BME280;55048;52.220;5.160;2023-02-11T03:18:43;103155.81;;;6.77;84.87
68230;BME280;55048;52.220;5.160;2023-02-11T03:21:10;103198.28;;;7.02;84.79
68230;BME280;55048;52.220;5.160;2023-02-11T03:23:39;103127.94;;;6.65;84.76
68230;BME280;55048;52.220;5.160;2023-02-11T03:26:16;103141.53;;;6.52;84.64
68230;BME280;55048;52.220;5.160;2023-02-11T03:31:46;103223.09;;;7.27;84.99
68230;BME280;55048;52.220;5.160;2023-02-11T03:34:27;103219.72;;;7.16;84.67
68230;BME280;55048;52.220;5.160;2023-02-11T03:36:59;103146.16;;;6.68;84.54
68230;BME280;55048;52.220;5.160;2023-02-11T03:39:32;103227.88;;;7.23;85.20
68230;BME280;55048;52.220;5.160;2023-02-11T03:42:00;103172.41;;;6.87;85.14
68230;BME280;55048;52.220;5.160;2023-02-11T03:44:30;103209.59;;;7.12;85.18
68230;BME280;55048;52.220;5.160;2023-02-11T03:47:00;103084.03;;;6.28;85.67
68230;BME280;55048;52.220;5.160;2023-02-11T03:49:27;103187.63;;;6.94;85.77
68230;BME280;55048;52.220;5.160;2023-02-11T03:51:54;103229.13;;;7.11;86.11
68230;BME280;55048;52.220;5.160;2023-02-11T03:54:26;103230.19;;;7.00;86.12
68230;BME280;55048;52.220;5.160;2023-02-11T03:56:56;103151.19;;;6.61;86.16
68230;BME280;55048;52.220;5.160;2023-02-11T03:59:22;103128.94;;;6.46;86.59
68230;BME280;55048;52.220;5.160;2023-02-11T04:01:47;103159.75;;;6.55;86.48
68230;BME280;55048;52.220;5.160;2023-02-11T04:04:13;103128.41;;;6.43;87.56
68230;BME280;55048;52.220;5.160;2023-02-11T04:06:39;103107.06;;;6.36;87.54
68230;BME280;55048;52.220;5.160;2023-02-11T04:09:04;103184.06;;;6.77;87.84
68230;BME280;55048;52.220;5.160;2023-02-11T04:11:29;103152.56;;;6.48;88.40
68230;BME280;55048;52.220;5.160;2023-02-11T04:13:55;103161.47;;;6.64;87.85
68230;BME280;55048;52.220;5.160;2023-02-11T04:16:21;103048.94;;;6.00;87.75
68230;BME280;55048;52.220;5.160;2023-02-11T04:18:46;103176.28;;;6.57;88.02
68230;BME280;55048;52.220;5.160;2023-02-11T04:21:12;102955.00;;;5.44;87.47
68230;BME280;55048;52.220;5.160;2023-02-11T04:23:37;103151.28;;;6.52;87.99
68230;BME280;55048;52.220;5.160;2023-02-11T04:26:03;103048.69;;;5.76;87.54
68230;BME280;55048;52.220;5.160;2023-02-11T04:28:28;103215.91;;;6.93;87.92
68230;BME280;55048;52.220;5.160;2023-02-11T04:30:57;103214.38;;;7.08;88.24
68230;BME280;55048;52.220;5.160;2023-02-11T04:33:23;103228.75;;;7.06;88.84
68230;BME280;55048;52.220;5.160;2023-02-11T04:35:48;103147.34;;;6.56;88.50
68230;BME280;55048;52.220;5.160;2023-02-11T04:38:15;103091.06;;;6.20;88.22
68230;BME280;55048;52.220;5.160;2023-02-11T04:40:40;103006.06;;;5.53;88.45
68230;BME280;55048;52.220;5.160;2023-02-11T04:43:06;103217.28;;;6.97;88.52
68230;BME280;55048;52.220;5.160;2023-02-11T04:45:32;102947.16;;;5.34;88.49
68230;BME280;55048;52.220;5.160;2023-02-11T04:47:57;103158.22;;;6.71;88.77
68230;BME280;55048;52.220;5.160;2023-02-11T04:50:22;103175.00;;;6.61;88.65
68230;BME280;55048;52.220;5.160;2023-02-11T04:52:48;103082.28;;;6.01;88.88
68230;BME280;55048;52.220;5.160;2023-02-11T04:55:13;103010.00;;;5.67;88.73
68230;BME280;55048;52.220;5.160;2023-02-11T04:57:39;103148.34;;;6.55;88.57
68230;BME280;55048;52.220;5.160;2023-02-11T05:00:05;103250.25;;;7.29;88.46
68230;BME280;55048;52.220;5.160;2023-02-11T05:02:31;103243.25;;;7.20;88.77
68230;BME280;55048;52.220;5.160;2023-02-11T05:04:57;103051.28;;;6.03;88.52
68230;BME280;55048;52.220;5.160;2023-02-11T05:07:22;103256.72;;;7.34;88.60
68230;BME280;55048;52.220;5.160;2023-02-11T05:09:49;103197.41;;;6.93;88.81
68230;BME280;55048;52.220;5.160;2023-02-11T05:12:14;103230.41;;;7.07;88.66
68230;BME280;55048;52.220;5.160;2023-02-11T05:14:39;103084.84;;;6.29;88.35
68230;BME280;55048;52.220;5.160;2023-02-11T05:17:05;103094.56;;;6.20;89.37
68230;BME280;55048;52.220;5.160;2023-02-11T05:19:30;103163.03;;;6.75;89.31
68230;BME280;55048;52.220;5.160;2023-02-11T05:21:56;103215.41;;;7.15;89.04
68230;BME280;55048;52.220;5.160;2023-02-11T05:24:21;102988.63;;;5.78;88.89
68230;BME280;55048;52.220;5.160;2023-02-11T05:26:47;103213.25;;;7.11;89.40
68230;BME280;55048;52.220;5.160;2023-02-11T05:29:12;103249.63;;;7.35;89.41
68230;BME280;55048;52.220;5.160;2023-02-11T05:31:38;103046.59;;;6.15;88.88
68230;BME280;55048;52.220;5.160;2023-02-11T05:34:03;102911.59;;;5.38;88.88
68230;BME280;55048;52.220;5.160;2023-02-11T05:36:29;103119.47;;;6.61;89.23
68230;BME280;55048;52.220;5.160;2023-02-11T05:38:54;103177.84;;;6.86;89.67
68230;BME280;55048;52.220;5.160;2023-02-11T05:41:20;103108.84;;;6.53;89.72
68230;BME280;55048;52.220;5.160;2023-02-11T05:43:49;103227.41;;;7.28;89.96
68230;BME280;55048;52.220;5.160;2023-02-11T05:46:16;103240.91;;;7.43;89.28
68230;BME280;55048;52.220;5.160;2023-02-11T05:48:42;103135.09;;;6.73;89.08
68230;BME280;55048;52.220;5.160;2023-02-11T05:51:07;103252.03;;;7.46;89.44
68230;BME280;55048;52.220;5.160;2023-02-11T05:53:33;103239.44;;;7.48;89.55
68230;BME280;55048;52.220;5.160;2023-02-11T05:55:59;103153.72;;;6.89;89.31
68230;BME280;55048;52.220;5.160;2023-02-11T05:58:24;103085.72;;;6.55;89.32
68230;BME280;55048;52.220;5.160;2023-02-11T06:00:50;102917.06;;;5.45;89.26
68230;BME280;55048;52.220;5.160;2023-02-11T06:03:15;103229.84;;;7.47;89.63
68230;BME280;55048;52.220;5.160;2023-02-11T06:05:45;103185.34;;;6.99;90.40
68230;BME280;55048;52.220;5.160;2023-02-11T06:08:10;103251.75;;;7.57;89.81
68230;BME280;55048;52.220;5.160;2023-02-11T06:10:36;103134.00;;;6.83;89.53
68230;BME280;55048;52.220;5.160;2023-02-11T06:13:02;103248.78;;;7.60;89.77
68230;BME280;55048;52.220;5.160;2023-02-11T06:15:28;103188.31;;;7.22;89.62
68230;BME280;55048;52.220;5.160;2023-02-11T06:17:53;103202.09;;;7.25;89.69
68230;BME280;55048;52.220;5.160;2023-02-11T06:20:19;103254.75;;;7.62;89.76
68230;BME280;55048;52.220;5.160;2023-02-11T06:22:44;103038.63;;;6.07;89.84
68230;BME280;55048;52.220;5.160;2023-02-11T06:25:10;103053.03;;;6.38;89.33
68230;BME280;55048;52.220;5.160;2023-02-11T06:27:37;103246.16;;;7.60;89.75
68230;BME280;55048;52.220;5.160;2023-02-11T06:30:04;103179.03;;;7.18;89.74
68230;BME280;55048;52.220;5.160;2023-02-11T06:32:30;103122.91;;;6.80;89.79
68230;BME280;55048;52.220;5.160;2023-02-11T06:34:56;103198.91;;;7.22;89.94
68230;BME280;55048;52.220;5.160;2023-02-11T06:37:22;103019.81;;;6.10;89.75
68230;BME280;55048;52.220;5.160;2023-02-11T06:39:47;103061.53;;;6.24;90.08
68230;BME280;55048;52.220;5.160;2023-02-11T06:42:13;103010.69;;;6.04;89.91
68230;BME280;55048;52.220;5.160;2023-02-11T06:44:38;103186.25;;;7.07;89.88
68230;BME280;55048;52.220;5.160;2023-02-11T06:47:04;103111.34;;;6.55;90.14
68230;BME280;55048;52.220;5.160;2023-02-11T06:49:29;103061.66;;;6.41;90.45
68230;BME280;55048;52.220;5.160;2023-02-11T06:51:55;103205.56;;;7.26;90.46
68230;BME280;55048;52.220;5.160;2023-02-11T06:54:20;103196.22;;;7.39;90.14
68230;BME280;55048;52.220;5.160;2023-02-11T06:56:46;103196.50;;;7.36;90.25
68230;BME280;55048;52.220;5.160;2023-02-11T06:59:16;103252.03;;;7.80;90.38
68230;BME280;55048;52.220;5.160;2023-02-11T07:01:42;103177.00;;;7.11;90.27
68230;BME280;55048;52.220;5.160;2023-02-11T07:04:07;103236.50;;;7.59;90.56
68230;BME280;55048;52.220;5.160;2023-02-11T07:06:33;103165.53;;;7.29;90.34
68230;BME280;55048;52.220;5.160;2023-02-11T07:08:58;103261.94;;;7.78;90.48
68230;BME280;55048;52.220;5.160;2023-02-11T07:11:26;103141.91;;;7.01;90.80
68230;BME280;55048;52.220;5.160;2023-02-11T07:13:55;103258.94;;;7.73;90.90
68230;BME280;55048;52.220;5.160;2023-02-11T07:16:21;103267.13;;;7.88;91.09
68230;BME280;55048;52.220;5.160;2023-02-11T07:18:47;103281.03;;;7.90;91.20
68230;BME280;55048;52.220;5.160;2023-02-11T07:21:15;103267.81;;;7.90;91.53
68230;BME280;55048;52.220;5.160;2023-02-11T07:23:41;103023.56;;;6.25;91.16
68230;BME280;55048;52.220;5.160;2023-02-11T07:26:09;103258.59;;;7.68;91.38
68230;BME280;55048;52.220;5.160;2023-02-11T07:28:36;103239.69;;;7.63;91.26
68230;BME280;55048;52.220;5.160;2023-02-11T07:31:10;103260.44;;;7.76;91.75
68230;BME280;55048;52.220;5.160;2023-02-11T07:33:36;103283.75;;;7.98;91.54
68230;BME280;55048;52.220;5.160;2023-02-11T07:36:04;103252.84;;;7.81;91.28
68230;BME280;55048;52.220;5.160;2023-02-11T07:38:30;103290.28;;;7.86;91.39
68230;BME280;55048;52.220;5.160;2023-02-11T07:40:59;103266.28;;;7.79;91.66
68230;BME280;55048;52.220;5.160;2023-02-11T07:43:25;103242.06;;;7.74;91.13
68230;BME280;55048;52.220;5.160;2023-02-11T07:45:50;103270.28;;;7.91;91.22
68230;BME280;55048;52.220;5.160;2023-02-11T07:48:16;103241.56;;;7.71;91.83
68230;BME280;55048;52.220;5.160;2023-02-11T07:50:41;103295.22;;;8.07;92.11
68230;BME280;55048;52.220;5.160;2023-02-11T07:53:07;103307.13;;;8.11;92.10
68230;BME280;55048;52.220;5.160;2023-02-11T07:55:32;103033.31;;;6.51;91.82
68230;BME280;55048;52.220;5.160;2023-02-11T07:57:58;103225.25;;;7.57;92.07
68230;BME280;55048;52.220;5.160;2023-02-11T08:00:23;103284.34;;;7.92;91.93
68230;BME280;55048;52.220;5.160;2023-02-11T08:02:48;103233.91;;;7.67;92.28
68230;BME280;55048;52.220;5.160;2023-02-11T08:05:14;103276.50;;;8.08;91.80
68230;BME280;55048;52.220;5.160;2023-02-11T08:07:39;103227.63;;;7.68;92.16
68230;BME280;55048;52.220;5.160;2023-02-11T08:10:05;103312.81;;;8.24;91.93
68230;BME280;55048;52.220;5.160;2023-02-11T08:12:30;103186.19;;;7.51;91.53
68230;BME280;55048;52.220;5.160;2023-02-11T08:14:56;103285.94;;;8.11;91.58
68230;BME280;55048;52.220;5.160;2023-02-11T08:17:21;103309.38;;;8.32;91.51
68230;BME280;55048;52.220;5.160;2023-02-11T08:19:46;103212.09;;;7.74;91.75
68230;BME280;55048;52.220;5.160;2023-02-11T08:22:12;103247.25;;;7.84;91.54
68230;BME280;55048;52.220;5.160;2023-02-11T08:24:37;103015.00;;;6.57;91.41
68230;BME280;55048;52.220;5.160;2023-02-11T08:27:03;103233.66;;;7.87;91.60
68230;BME280;55048;52.220;5.160;2023-02-11T08:29:29;103217.41;;;7.82;91.67
68230;BME280;55048;52.220;5.160;2023-02-11T08:31:54;103104.28;;;7.15;91.74
68230;BME280;55048;52.220;5.160;2023-02-11T08:34:20;103250.63;;;8.02;92.00
68230;BME280;55048;52.220;5.160;2023-02-11T08:36:47;103231.88;;;7.96;91.82
68230;BME280;55048;52.220;5.160;2023-02-11T08:39:18;103318.25;;;8.49;91.85
68230;BME280;55048;52.220;5.160;2023-02-11T08:41:45;103237.75;;;7.73;91.65
68230;BME280;55048;52.220;5.160;2023-02-11T08:44:11;103111.38;;;7.15;91.98
68230;BME280;55048;52.220;5.160;2023-02-11T08:46:36;103361.19;;;8.52;92.15
68230;BME280;55048;52.220;5.160;2023-02-11T08:49:02;103259.59;;;8.09;91.68
68230;BME280;55048;52.220;5.160;2023-02-11T08:51:28;103360.38;;;8.60;91.71
68230;BME280;55048;52.220;5.160;2023-02-11T08:53:56;103175.44;;;7.53;91.58
68230;BME280;55048;52.220;5.160;2023-02-11T08:56:21;103280.88;;;8.34;91.83
68230;BME280;55048;52.220;5.160;2023-02-11T08:58:50;103106.63;;;7.19;91.68
68230;BME280;55048;52.220;5.160;2023-02-11T09:01:19;103333.69;;;8.61;92.21
68230;BME280;55048;52.220;5.160;2023-02-11T09:03:45;103081.41;;;7.06;91.63
68230;BME280;55048;52.220;5.160;2023-02-11T09:06:11;103338.53;;;8.74;91.43
68230;BME280;55048;52.220;5.160;2023-02-11T09:08:40;103052.72;;;6.85;91.01
68230;BME280;55048;52.220;5.160;2023-02-11T09:11:05;103343.88;;;8.82;91.28
68230;BME280;55048;52.220;5.160;2023-02-11T09:13:32;103171.25;;;7.50;90.75
68230;BME280;55048;52.220;5.160;2023-02-11T09:15:59;103265.63;;;8.28;91.12
68230;BME280;55048;52.220;5.160;2023-02-11T09:18:25;103281.56;;;8.36;90.85
68230;BME280;55048;52.220;5.160;2023-02-11T09:20:50;103357.97;;;8.83;91.24
68230;BME280;55048;52.220;5.160;2023-02-11T09:23:16;103257.66;;;8.28;90.88
68230;BME280;55048;52.220;5.160;2023-02-11T09:25:41;103280.88;;;8.34;90.96
68230;BME280;55048;52.220;5.160;2023-02-11T09:28:07;103356.63;;;8.95;90.84
68230;BME280;55048;52.220;5.160;2023-02-11T09:30:34;103323.94;;;8.70;90.68
68230;BME280;55048;52.220;5.160;2023-02-11T09:33:00;103245.84;;;8.14;90.41
68230;BME280;55048;52.220;5.160;2023-02-11T09:35:25;103215.63;;;7.90;90.74
68230;BME280;55048;52.220;5.160;2023-02-11T09:37:51;103372.25;;;8.98;90.80
68230;BME280;55048;52.220;5.160;2023-02-11T09:40:17;103376.38;;;9.09;90.45
68230;BME280;55048;52.220;5.160;2023-02-11T09:42:58;103257.56;;;8.46;90.30
68230;BME280;55048;52.220;5.160;2023-02-11T09:45:29;103295.75;;;8.77;90.08
68230;BME280;55048;52.220;5.160;2023-02-11T09:48:01;103355.34;;;9.15;90.10
68230;BME280;55048;52.220;5.160;2023-02-11T09:50:32;103375.41;;;9.18;89.81
68230;BME280;55048;52.220;5.160;2023-02-11T09:55:42;103357.34;;;9.22;89.55
68230;BME280;55048;52.220;5.160;2023-02-11T09:58:18;103320.34;;;8.96;89.55
68230;BME280;55048;52.220;5.160;2023-02-11T10:06:39;103405.00;;;9.48;89.54
68230;BME280;55048;52.220;5.160;2023-02-11T10:09:33;103380.25;;;9.31;89.29
68230;BME280;55048;52.220;5.160;2023-02-11T10:20:12;103418.09;;;9.65;89.00
68230;BME280;55048;52.220;5.160;2023-02-11T10:22:58;103279.84;;;8.77;88.67
68230;BME280;55048;52.220;5.160;2023-02-11T10:25:46;103374.44;;;9.35;88.62
68230;BME280;55048;52.220;5.160;2023-02-11T10:28:21;103398.03;;;9.47;88.64
68230;BME280;55048;52.220;5.160;2023-02-11T10:33:29;103298.56;;;8.84;88.84
68230;BME280;55048;52.220;5.160;2023-02-11T10:35:57;103441.84;;;9.67;88.80
68230;BME280;55048;52.220;5.160;2023-02-11T10:38:22;103331.78;;;8.96;88.66
68230;BME280;55048;52.220;5.160;2023-02-11T10:40:48;103249.59;;;8.37;88.67
68230;BME280;55048;52.220;5.160;2023-02-11T10:43:15;103446.34;;;9.75;88.79
68230;BME280;55048;52.220;5.160;2023-02-11T10:45:48;103465.25;;;9.80;88.46
68230;BME280;55048;52.220;5.160;2023-02-11T10:48:43;103436.84;;;9.80;88.52
68230;BME280;55048;52.220;5.160;2023-02-11T10:53:47;103335.91;;;9.31;88.08
68230;BME280;55048;52.220;5.160;2023-02-11T10:56:24;103431.50;;;10.05;88.28
68230;BME280;55048;52.220;5.160;2023-02-11T11:01:21;103283.31;;;9.18;86.96
68230;BME280;55048;52.220;5.160;2023-02-11T11:03:51;103395.31;;;9.87;86.96
68230;BME280;55048;52.220;5.160;2023-02-11T11:06:26;103445.78;;;10.28;86.81
68230;BME280;55048;52.220;5.160;2023-02-11T11:08:53;103389.34;;;9.93;86.05
68230;BME280;55048;52.220;5.160;2023-02-11T11:11:21;103438.63;;;10.29;85.96
68230;BME280;55048;52.220;5.160;2023-02-11T11:16:36;103431.97;;;10.25;84.71
68230;BME280;55048;52.220;5.160;2023-02-11T11:21:40;103369.09;;;9.76;83.96
68230;BME280;55048;52.220;5.160;2023-02-11T11:24:36;103342.53;;;9.68;83.74
68230;BME280;55048;52.220;5.160;2023-02-11T11:27:03;103440.78;;;10.25;82.56
68230;BME280;55048;52.220;5.160;2023-02-11T11:29:38;103465.91;;;10.31;82.90
68230;BME280;55048;52.220;5.160;2023-02-11T11:32:14;103465.50;;;10.50;82.72
68230;BME280;55048;52.220;5.160;2023-02-11T11:34:48;103454.06;;;10.41;81.90
68230;BME280;55048;52.220;5.160;2023-02-11T11:42:26;103472.22;;;10.77;81.33
68230;BME280;55048;52.220;5.160;2023-02-11T11:48:07;103471.22;;;10.78;80.76
68230;BME280;55048;52.220;5.160;2023-02-11T11:50:36;103365.03;;;10.05;79.96
68230;BME280;55048;52.220;5.160;2023-02-11T11:53:20;103460.28;;;10.65;79.96
68230;BME280;55048;52.220;5.160;2023-02-11T11:56:01;103430.09;;;10.50;79.86
68230;BME280;55048;52.220;5.160;2023-02-11T11:58:27;103473.88;;;10.78;79.86
68230;BME280;55048;52.220;5.160;2023-02-11T12:10:17;103461.03;;;10.82;79.61
68230;BME280;55048;52.220;5.160;2023-02-11T12:13:00;103377.41;;;10.37;79.49
68230;BME280;55048;52.220;5.160;2023-02-11T12:30:38;103395.41;;;10.97;77.83
68230;BME280;55048;52.220;5.160;2023-02-11T12:36:09;103419.66;;;11.02;77.21
68230;BME280;55048;52.220;5.160;2023-02-11T12:39:01;103445.19;;;11.19;77.20
68230;BME280;55048;52.220;5.160;2023-02-11T12:45:02;103444.88;;;11.37;77.01
68230;BME280;55048;52.220;5.160;2023-02-11T12:50:45;103384.00;;;11.11;76.79
68230;BME280;55048;52.220;5.160;2023-02-11T12:56:08;103368.34;;;11.08;76.29
68230;BME280;55048;52.220;5.160;2023-02-11T12:58:35;103459.03;;;11.61;76.33
68230;BME280;55048;52.220;5.160;2023-02-11T13:01:21;103419.25;;;11.36;76.04
68230;BME280;55048;52.220;5.160;2023-02-11T13:03:59;103289.66;;;10.29;76.12
68230;BME280;55048;52.220;5.160;2023-02-11T13:06:36;103359.03;;;10.81;76.18
68230;BME280;55048;52.220;5.160;2023-02-11T13:09:05;103302.59;;;10.40;76.75
68230;BME280;55048;52.220;5.160;2023-02-11T13:11:38;103406.53;;;11.23;76.30
68230;BME280;55048;52.220;5.160;2023-02-11T13:14:06;103441.91;;;11.55;76.08
68230;BME280;55048;52.220;5.160;2023-02-11T13:16:45;103435.91;;;11.38;75.86
68230;BME280;55048;52.220;5.160;2023-02-11T13:24:40;103431.63;;;11.52;76.02
68230;BME280;55048;52.220;5.160;2023-02-11T13:30:28;103425.00;;;11.48;75.37
68230;BME280;55048;52.220;5.160;2023-02-11T13:37:51;103206.28;;;10.13;74.95
68230;BME280;55048;52.220;5.160;2023-02-11T13:40:25;103426.69;;;11.64;74.90
68230;BME280;55048;52.220;5.160;2023-02-11T13:42:54;103410.75;;;11.56;74.87
68230;BME280;55048;52.220;5.160;2023-02-11T13:45:27;103434.50;;;11.65;74.48
68230;BME280;55048;52.220;5.160;2023-02-11T13:47:57;103283.22;;;10.54;74.59
68230;BME280;55048;52.220;5.160;2023-02-11T13:50:23;103444.53;;;11.63;74.51
68230;BME280;55048;52.220;5.160;2023-02-11T13:52:58;103244.00;;;10.17;74.35
68230;BME280;55048;52.220;5.160;2023-02-11T13:55:25;103442.41;;;11.59;74.45
68230;BME280;55048;52.220;5.160;2023-02-11T14:00:50;103435.94;;;11.53;74.95
68230;BME280;55048;52.220;5.160;2023-02-11T14:14:31;103431.28;;;11.32;75.05
68230;BME280;55048;52.220;5.160;2023-02-11T14:19:45;103427.38;;;11.43;75.04
68230;BME280;55048;52.220;5.160;2023-02-11T14:22:26;103412.75;;;11.39;74.79
68230;BME280;55048;52.220;5.160;2023-02-11T14:24:56;103439.19;;;11.63;74.72
68230;BME280;55048;52.220;5.160;2023-02-11T14:27:27;103353.28;;;11.01;74.75
68230;BME280;55048;52.220;5.160;2023-02-11T14:40:47;103450.94;;;11.54;74.69
68230;BME280;55048;52.220;5.160;2023-02-11T14:43:19;103369.31;;;10.92;74.60
68230;BME280;55048;52.220;5.160;2023-02-11T14:45:49;103439.97;;;11.49;74.87
68230;BME280;55048;52.220;5.160;2023-02-11T14:48:19;103398.91;;;11.20;74.63
68230;BME280;55048;52.220;5.160;2023-02-11T14:53:41;103439.28;;;11.70;74.39
68230;BME280;55048;52.220;5.160;2023-02-11T14:56:21;103456.19;;;11.62;74.58
68230;BME280;55048;52.220;5.160;2023-02-11T14:58:49;103453.16;;;11.65;74.28
68230;BME280;55048;52.220;5.160;2023-02-11T15:01:31;103401.13;;;11.32;74.11
68230;BME280;55048;52.220;5.160;2023-02-11T15:03:58;103366.13;;;11.20;74.01
68230;BME280;55048;52.220;5.160;2023-02-11T15:06:44;103429.13;;;11.50;74.00
68230;BME280;55048;52.220;5.160;2023-02-11T15:09:15;103456.00;;;11.64;73.92
68230;BME280;55048;52.220;5.160;2023-02-11T15:11:44;103456.06;;;11.56;74.07
68230;BME280;55048;52.220;5.160;2023-02-11T15:14:21;103462.84;;;11.43;74.04
68230;BME280;55048;52.220;5.160;2023-02-11T15:16:49;103462.47;;;11.46;73.94
68230;BME280;55048;52.220;5.160;2023-02-11T15:21:54;103474.13;;;11.22;74.17
68230;BME280;55048;52.220;5.160;2023-02-11T15:24:29;103465.25;;;11.30;74.19
68230;BME280;55048;52.220;5.160;2023-02-11T15:29:47;103319.59;;;10.31;74.47
68230;BME280;55048;52.220;5.160;2023-02-11T15:32:22;103433.56;;;10.81;75.04
68230;BME280;55048;52.220;5.160;2023-02-11T15:34:50;103327.22;;;10.34;74.67
68230;BME280;55048;52.220;5.160;2023-02-11T15:37:24;103469.78;;;11.30;74.40